Time;durP1;ratioP1;P1;durP2;ratioP2;P2;SDS_P1;SDS_P2;PMS_P1;PMS_P2;Temp;Humidity;BMP_temperature;BMP_pressure;BME280_temperature;BME280_humidity;BME280_pressure;Samples;Min_cycle;Max_cycle;Signal;HPM_P1;HPM_P2
2021/01/18 00:00:22;;;;;;;4.28;1.38;;;;;8.90;102135.00;;;;5009494;28;20225;-77
2021/01/18 00:02:49;;;;;;;4.40;1.50;;;;;8.90;102142.00;;;;5002939;28;20209;-77
2021/01/18 00:05:17;;;;;;;2.55;1.58;;;;;8.80;102142.00;;;;5009159;28;20197;-77
2021/01/18 00:07:46;;;;;;;2.47;1.58;;;;;8.70;102144.00;;;;5009815;28;20208;-77
2021/01/18 00:10:15;;;;;;;2.20;1.30;;;;;8.70;102130.00;;;;5004654;28;20260;-77
2021/01/18 00:12:48;;;;;;;2.65;1.88;;;;;8.60;102128.00;;;;5009528;28;20201;-77
2021/01/18 00:15:16;;;;;;;1.98;1.17;;;;;8.60;102136.00;;;;5005684;28;20197;-77
2021/01/18 00:17:43;;;;;;;4.28;1.42;;;;;8.60;102120.00;;;;5009858;28;20201;-76
2021/01/18 00:20:11;;;;;;;1.42;1.13;;;;;8.50;102122.00;;;;4996787;28;20205;-77
2021/01/18 00:22:39;;;;;;;4.07;1.67;;;;;8.50;102129.00;;;;4991601;28;20209;-77
2021/01/18 00:25:10;;;;;;;5.30;1.90;;;;;8.50;102127.00;;;;5008630;28;20212;-76
2021/01/18 00:27:38;;;;;;;3.35;1.60;;;;;8.50;102119.00;;;;4996911;28;20206;-77
2021/01/18 00:30:10;;;;;;;2.08;1.35;;;;;8.50;102128.00;;;;5008171;28;20690;-77
2021/01/18 00:32:38;;;;;;;3.70;1.52;;;;;8.60;102127.00;;;;5009273;28;20201;-77
2021/01/18 00:35:07;;;;;;;2.53;1.55;;;;;8.60;102116.00;;;;5007595;28;20204;-77
2021/01/18 00:37:41;;;;;;;4.38;1.58;;;;;8.60;102116.00;;;;5001568;28;20209;-77
2021/01/18 00:40:10;;;;;;;4.03;1.98;;;;;8.60;102119.00;;;;5009494;28;20244;-77
2021/01/18 00:42:38;;;;;;;4.05;1.60;;;;;8.60;102125.00;;;;5009572;28;20205;-77
2021/01/18 00:45:06;;;;;;;2.88;1.58;;;;;8.70;102121.00;;;;5004394;28;20208;-76
2021/01/18 00:47:38;;;;;;;3.22;1.60;;;;;8.60;102112.00;;;;5007332;28;20204;-77
2021/01/18 00:50:05;;;;;;;2.85;1.85;;;;;8.60;102102.00;;;;5001998;28;20717;-77
2021/01/18 00:52:32;;;;;;;2.13;1.42;;;;;8.60;102110.00;;;;4990208;28;20205;-77
2021/01/18 00:54:59;;;;;;;5.25;1.65;;;;;8.60;102109.00;;;;5008596;28;20217;-77
2021/01/18 00:57:32;;;;;;;2.97;1.25;;;;;8.50;102101.00;;;;4996611;28;20198;-77
2021/01/18 00:59:59;;;;;;;2.00;1.25;;;;;8.50;102102.00;;;;5008497;28;20225;-77
2021/01/18 01:02:26;;;;;;;2.42;1.52;;;;;8.50;102092.00;;;;5009482;28;20200;-76
2021/01/18 01:04:53;;;;;;;3.10;1.63;;;;;8.40;102103.00;;;;5008870;28;20197;-77
2021/01/18 01:07:19;;;;;;;2.85;1.70;;;;;8.40;102097.00;;;;5008839;28;20213;-77
2021/01/18 01:09:46;;;;;;;3.72;1.60;;;;;8.40;102093.00;;;;4990343;28;20221;-77
2021/01/18 01:12:13;;;;;;;3.60;1.63;;;;;8.30;102097.00;;;;4995633;28;20202;-77
2021/01/18 01:14:40;;;;;;;3.15;1.50;;;;;8.30;102093.00;;;;4994933;28;20682;-77
2021/01/18 01:17:11;;;;;;;1.60;1.25;;;;;8.30;102088.00;;;;4993044;28;20196;-77
2021/01/18 01:19:38;;;;;;;4.47;1.77;;;;;8.30;102087.00;;;;4997391;28;20296;-77
2021/01/18 01:22:04;;;;;;;2.38;1.50;;;;;8.30;102098.00;;;;4990234;28;20583;-77
2021/01/18 01:24:31;;;;;;;2.53;1.20;;;;;8.20;102088.00;;;;5005869;28;20201;-76
2021/01/18 01:26:58;;;;;;;2.47;1.33;;;;;8.20;102083.00;;;;5001222;28;20205;-76
2021/01/18 01:29:25;;;;;;;3.30;1.40;;;;;8.20;102096.00;;;;4998092;28;20193;-76
2021/01/18 01:31:52;;;;;;;2.90;1.90;;;;;8.20;102090.00;;;;4992662;28;20206;-77
2021/01/18 01:34:19;;;;;;;3.33;1.60;;;;;8.10;102087.00;;;;4996008;28;20205;-76
2021/01/18 01:36:46;;;;;;;4.32;1.45;;;;;8.10;102078.00;;;;5006870;28;20197;-76
2021/01/18 01:39:12;;;;;;;2.15;1.38;;;;;8.10;102090.00;;;;5011444;28;20220;-77
2021/01/18 01:41:39;;;;;;;4.82;1.85;;;;;8.00;102088.00;;;;5011780;28;20252;-77
2021/01/18 01:44:06;;;;;;;3.25;1.63;;;;;8.00;102091.00;;;;5010365;28;20632;-76
2021/01/18 01:46:33;;;;;;;6.07;2.13;;;;;8.00;102086.00;;;;5012258;28;20216;-76
2021/01/18 01:49:02;;;;;;;4.03;1.50;;;;;8.00;102086.00;;;;5010417;28;20574;-76
2021/01/18 01:51:30;;;;;;;2.20;1.55;;;;;8.00;102083.00;;;;5011375;28;20236;-77
2021/01/18 01:53:57;;;;;;;2.75;1.70;;;;;8.00;102082.00;;;;5011989;28;20239;-76
2021/01/18 01:56:24;;;;;;;3.78;1.95;;;;;7.90;102078.00;;;;5012190;28;20259;-77
2021/01/18 01:58:53;;;;;;;4.13;1.85;;;;;7.90;102083.00;;;;5007561;28;20232;-76
2021/01/18 02:01:21;;;;;;;3.80;2.03;;;;;7.90;102080.00;;;;4996082;28;20291;-76
2021/01/18 02:03:51;;;;;;;3.10;1.60;;;;;7.90;102080.00;;;;5010854;28;20201;-76
2021/01/18 02:06:19;;;;;;;2.33;1.35;;;;;7.80;102073.00;;;;5004588;28;20280;-76
2021/01/18 02:08:46;;;;;;;2.83;1.70;;;;;7.80;102074.00;;;;5006921;28;20227;-76
2021/01/18 02:11:14;;;;;;;2.53;1.65;;;;;7.80;102076.00;;;;4995235;28;20247;-76
2021/01/18 02:13:58;;;;;;;4.53;2.08;;;;;7.80;102085.00;;;;5004380;28;20201;-76
2021/01/18 02:16:28;;;;;;;2.40;1.63;;;;;7.80;102079.00;;;;5011517;28;20204;-77
2021/01/18 02:19:25;;;;;;;7.00;2.38;;;;;7.70;102082.00;;;;5009600;28;20193;-77
2021/01/18 02:22:26;;;;;;;3.35;1.67;;;;;7.60;102089.00;;;;5011173;28;20189;-77
2021/01/18 02:25:19;;;;;;;3.17;1.85;;;;;7.60;102092.00;;;;5010539;28;20204;-77
2021/01/18 02:28:24;;;;;;;4.28;1.90;;;;;7.60;102093.00;;;;5010303;28;20197;-77
2021/01/18 02:31:29;;;;;;;3.90;1.85;;;;;7.60;102088.00;;;;5011495;28;20225;-76
2021/01/18 02:34:30;;;;;;;7.03;1.38;;;;;7.50;102087.00;;;;5010577;28;20193;-76
2021/01/18 02:37:09;;;;;;;2.75;1.58;;;;;7.60;102080.00;;;;4993059;28;20204;-77
2021/01/18 02:39:48;;;;;;;6.20;2.20;;;;;7.50;102084.00;;;;4999500;28;20201;-76
2021/01/18 02:42:21;;;;;;;4.95;2.33;;;;;7.60;102081.00;;;;5002336;28;20197;-77
2021/01/18 02:44:51;;;;;;;4.45;1.85;;;;;7.60;102089.00;;;;5005939;28;20213;-76
2021/01/18 02:47:20;;;;;;;4.88;2.30;;;;;7.60;102078.00;;;;5006944;28;20282;-76
2021/01/18 02:49:51;;;;;;;4.70;1.65;;;;;7.60;102083.00;;;;4991336;28;20198;-76
2021/01/18 02:52:18;;;;;;;2.92;1.70;;;;;7.60;102088.00;;;;5000759;28;20201;-76
2021/01/18 02:54:45;;;;;;;3.95;1.73;;;;;7.60;102077.00;;;;5010288;28;20263;-76
2021/01/18 02:57:14;;;;;;;3.28;1.63;;;;;7.60;102084.00;;;;5008951;28;20205;-76
2021/01/18 02:59:43;;;;;;;2.70;1.60;;;;;7.60;102078.00;;;;5010914;28;20680;-76
2021/01/18 03:02:35;;;;;;;6.55;1.70;;;;;7.60;102079.00;;;;5010299;28;20205;-76
2021/01/18 03:05:19;;;;;;;3.08;1.55;;;;;7.60;102072.00;;;;4996805;28;20739;-76
2021/01/18 03:08:03;;;;;;;2.55;1.33;;;;;7.60;102071.00;;;;4991024;28;20260;-76
2021/01/18 03:10:38;;;;;;;3.60;1.70;;;;;7.70;102074.00;;;;5009955;28;20224;-76
2021/01/18 03:13:11;;;;;;;1.83;1.10;;;;;7.70;102075.00;;;;5009287;28;20196;-77
2021/01/18 03:15:42;;;;;;;5.68;1.75;;;;;7.70;102081.00;;;;5010747;28;20288;-77
2021/01/18 03:18:13;;;;;;;3.92;1.77;;;;;7.80;102083.00;;;;5009881;28;20270;-76
2021/01/18 03:20:39;;;;;;;4.63;1.90;;;;;7.80;102075.00;;;;5010443;28;20270;-77
2021/01/18 03:23:07;;;;;;;3.53;1.55;;;;;7.90;102069.00;;;;4996184;28;20668;-76
2021/01/18 03:25:49;;;;;;;5.43;1.50;;;;;7.90;102065.00;;;;5010317;28;20618;-76
2021/01/18 03:28:17;;;;;;;3.10;1.58;;;;;8.00;102068.00;;;;5009950;28;20767;-76
2021/01/18 03:30:44;;;;;;;4.30;1.73;;;;;8.00;102067.00;;;;5002329;28;20250;-77
2021/01/18 03:33:10;;;;;;;3.50;1.67;;;;;8.00;102065.00;;;;5009422;28;20208;-77
2021/01/18 03:35:37;;;;;;;3.90;1.88;;;;;8.10;102063.00;;;;4999685;28;20204;-77
2021/01/18 03:38:04;;;;;;;3.83;1.88;;;;;8.10;102055.00;;;;5010286;28;20207;-77
2021/01/18 03:40:33;;;;;;;5.25;1.92;;;;;8.10;102054.00;;;;5009568;28;20947;-77
2021/01/18 03:43:01;;;;;;;3.08;1.77;;;;;8.10;102054.00;;;;5008175;28;20209;-76
2021/01/18 03:45:30;;;;;;;4.78;1.85;;;;;8.10;102049.00;;;;5008785;28;20215;-77
2021/01/18 03:47:57;;;;;;;3.80;1.80;;;;;8.20;102050.00;;;;5010018;28;20618;-77
2021/01/18 03:50:23;;;;;;;8.63;2.20;;;;;8.20;102041.00;;;;5009815;28;20228;-77
2021/01/18 03:52:52;;;;;;;6.20;1.60;;;;;8.20;102039.00;;;;5009878;28;20205;-77
2021/01/18 03:55:19;;;;;;;4.32;1.92;;;;;8.20;102052.00;;;;5006159;28;20707;-77
2021/01/18 03:57:48;;;;;;;5.90;1.90;;;;;8.20;102047.00;;;;4999181;28;20202;-77
2021/01/18 04:00:17;;;;;;;12.23;2.03;;;;;8.20;102052.00;;;;4996909;28;20225;-76
2021/01/18 04:02:45;;;;;;;4.65;1.85;;;;;8.20;102043.00;;;;4996605;28;20202;-77
2021/01/18 04:05:12;;;;;;;3.88;2.17;;;;;8.20;102036.00;;;;5003872;28;20685;-76
2021/01/18 04:07:40;;;;;;;4.35;2.03;;;;;8.20;102044.00;;;;4990618;28;20297;-76
2021/01/18 04:10:09;;;;;;;5.60;2.00;;;;;8.30;102045.00;;;;4997230;28;20228;-76
2021/01/18 04:12:39;;;;;;;3.90;1.92;;;;;8.30;102048.00;;;;5009325;28;20200;-76
2021/01/18 04:15:08;;;;;;;3.22;2.00;;;;;8.30;102043.00;;;;5008148;28;20236;-76
2021/01/18 04:17:35;;;;;;;3.45;1.65;;;;;8.30;102032.00;;;;4999881;28;20284;-77
2021/01/18 04:20:02;;;;;;;3.28;1.75;;;;;8.40;102036.00;;;;5006065;28;20216;-76
2021/01/18 04:22:29;;;;;;;5.97;1.75;;;;;8.40;102038.00;;;;4998917;28;20205;-77
2021/01/18 04:24:55;;;;;;;5.95;1.55;;;;;8.50;102035.00;;;;4991159;28;20209;-77
2021/01/18 04:27:22;;;;;;;7.78;2.53;;;;;8.50;102043.00;;;;5003156;28;20585;-76
2021/01/18 04:29:49;;;;;;;6.80;2.15;;;;;8.50;102038.00;;;;5009200;28;20228;-76
2021/01/18 04:32:16;;;;;;;4.78;2.40;;;;;8.50;102030.00;;;;5002712;28;20194;-77
2021/01/18 04:34:43;;;;;;;5.63;1.70;;;;;8.60;102029.00;;;;4990902;28;20257;-77
2021/01/18 04:37:10;;;;;;;4.25;1.83;;;;;8.60;102035.00;;;;4999511;28;20224;-77
2021/01/18 04:39:37;;;;;;;3.25;1.98;;;;;8.60;102029.00;;;;5004333;28;20205;-76
2021/01/18 04:42:03;;;;;;;3.97;2.05;;;;;8.60;102030.00;;;;5009053;28;20197;-76
2021/01/18 04:44:30;;;;;;;6.57;2.05;;;;;8.70;102039.00;;;;4998467;28;20210;-76
2021/01/18 04:46:57;;;;;;;5.70;1.58;;;;;8.70;102026.00;;;;5000950;28;20271;-76
2021/01/18 04:49:25;;;;;;;5.63;2.00;;;;;8.70;102028.00;;;;5000624;28;20205;-76
2021/01/18 04:51:53;;;;;;;5.95;1.70;;;;;8.70;102030.00;;;;4996559;28;20229;-77
2021/01/18 04:54:22;;;;;;;3.72;1.85;;;;;8.70;102020.00;;;;4989993;28;20198;-77
2021/01/18 04:57:11;;;;;;;6.35;1.90;;;;;8.60;102021.00;;;;4991257;28;20201;-77
2021/01/18 04:59:40;;;;;;;4.65;2.58;;;;;8.70;102016.00;;;;5008039;28;20236;-76
2021/01/18 05:02:09;;;;;;;3.45;1.92;;;;;8.70;102018.00;;;;5007838;28;20200;-77
2021/01/18 05:04:41;;;;;;;6.97;2.20;;;;;8.70;102008.00;;;;5008525;28;20573;-77
2021/01/18 05:07:45;;;;;;;7.45;2.38;;;;;8.60;102013.00;;;;4991901;28;20201;-76
2021/01/18 05:10:13;;;;;;;3.40;1.90;;;;;8.70;102022.00;;;;4995486;28;20367;-77
2021/01/18 05:12:42;;;;;;;5.90;2.45;;;;;8.70;102012.00;;;;5008767;28;20197;-76
2021/01/18 05:15:11;;;;;;;5.53;1.73;;;;;8.80;102011.00;;;;5009784;28;20201;-76
2021/01/18 05:17:44;;;;;;;5.90;2.45;;;;;8.80;102014.00;;;;5006797;28;20194;-77
2021/01/18 05:20:13;;;;;;;4.10;2.28;;;;;8.80;102011.00;;;;5008493;28;20201;-77
2021/01/18 05:22:42;;;;;;;8.18;2.45;;;;;8.90;102011.00;;;;5010444;28;20212;-77
2021/01/18 05:25:10;;;;;;;4.03;2.00;;;;;8.90;102013.00;;;;4997580;28;20296;-77
2021/01/18 05:28:02;;;;;;;7.70;2.53;;;;;8.80;102002.00;;;;4996461;28;20192;-76
2021/01/18 05:30:30;;;;;;;6.63;2.47;;;;;8.90;102014.00;;;;4995156;28;20228;-76
2021/01/18 05:33:07;;;;;;;4.82;1.90;;;;;8.90;102012.00;;;;5007651;28;20224;-77
2021/01/18 05:35:37;;;;;;;7.22;2.13;;;;;8.90;102004.00;;;;4999507;28;20217;-77
2021/01/18 05:38:12;;;;;;;4.55;2.35;;;;;8.90;102011.00;;;;5011348;28;20295;-76
2021/01/18 05:40:42;;;;;;;5.18;1.77;;;;;8.90;102004.00;;;;4996964;28;20208;-77
2021/01/18 05:43:10;;;;;;;4.15;1.95;;;;;8.90;102002.00;;;;5008111;28;20201;-77
2021/01/18 05:45:39;;;;;;;5.75;1.98;;;;;9.00;102012.00;;;;5010151;28;20197;-77
2021/01/18 05:48:08;;;;;;;4.93;1.88;;;;;9.00;102012.00;;;;5008532;28;20189;-77
2021/01/18 05:50:37;;;;;;;8.68;2.35;;;;;9.00;102011.00;;;;4992069;28;20244;-76
2021/01/18 05:53:24;;;;;;;5.03;2.05;;;;;9.00;102011.00;;;;5018955;28;20200;-76
2021/01/18 05:55:51;;;;;;;4.75;1.90;;;;;9.10;102009.00;;;;4994037;28;20205;-76
2021/01/18 05:58:31;;;;;;;8.83;2.77;;;;;9.00;102002.00;;;;4991458;28;552184;-77
2021/01/18 06:00:58;;;;;;;5.75;2.55;;;;;9.10;102005.00;;;;5006580;28;20201;-77
2021/01/18 06:03:28;;;;;;;7.38;2.45;;;;;9.10;102001.00;;;;4995918;28;20582;-77
2021/01/18 06:05:56;;;;;;;3.97;2.13;;;;;9.20;101994.00;;;;5010914;28;20339;-77
2021/01/18 06:08:24;;;;;;;6.50;1.85;;;;;9.20;101991.00;;;;5005519;28;20200;-77
2021/01/18 06:10:52;;;;;;;10.50;2.83;;;;;9.20;101989.00;;;;5006444;28;20224;-77
2021/01/18 06:13:21;;;;;;;6.45;2.75;;;;;9.20;101990.00;;;;5006139;28;20197;-77
2021/01/18 06:15:48;;;;;;;6.13;2.50;;;;;9.20;101979.00;;;;5010604;28;20193;-77
2021/01/18 06:18:16;;;;;;;6.45;3.25;;;;;9.30;101998.00;;;;5001289;28;20550;-77
2021/01/18 06:20:43;;;;;;;6.78;2.33;;;;;9.30;101989.00;;;;5011329;28;20197;-77
2021/01/18 06:23:19;;;;;;;5.57;2.33;;;;;9.30;101986.00;;;;4996813;28;20197;-77
2021/01/18 06:25:51;;;;;;;5.72;2.75;;;;;9.30;101985.00;;;;5000966;28;20197;-77
2021/01/18 06:28:28;;;;;;;5.93;2.22;;;;;9.30;101984.00;;;;5011605;28;20201;-77
2021/01/18 06:30:57;;;;;;;5.47;2.38;;;;;9.30;101978.00;;;;5010200;28;20221;-77
2021/01/18 06:33:36;;;;;;;8.38;2.58;;;;;9.30;101984.00;;;;5010171;28;20625;-77
2021/01/18 06:36:15;;;;;;;11.45;3.38;;;;;9.30;101987.00;;;;5004596;28;20203;-77
2021/01/18 06:38:45;;;;;;;6.05;2.63;;;;;9.30;101977.00;;;;5010525;28;20682;-77
2021/01/18 06:41:13;;;;;;;5.57;2.75;;;;;9.40;101980.00;;;;4991764;28;20197;-77
2021/01/18 06:43:46;;;;;;;9.45;3.28;;;;;9.30;101984.00;;;;5004414;28;20205;-77
2021/01/18 06:46:17;;;;;;;6.50;2.80;;;;;9.40;101977.00;;;;5009393;28;20232;-77
2021/01/18 06:48:48;;;;;;;5.07;2.53;;;;;9.40;101972.00;;;;5003691;28;20578;-77
2021/01/18 06:51:17;;;;;;;5.05;2.97;;;;;9.40;101969.00;;;;5009684;28;20236;-77
2021/01/18 06:53:47;;;;;;;6.07;3.13;;;;;9.40;101971.00;;;;5004205;28;20267;-77
2021/01/18 06:56:45;;;;;;;6.15;3.25;;;;;9.30;101971.00;;;;5009944;28;20231;-77
2021/01/18 06:59:34;;;;;;;6.95;3.10;;;;;9.40;101971.00;;;;5001464;28;20271;-77
2021/01/18 07:02:16;;;;;;;7.55;3.25;;;;;9.40;101966.00;;;;5006495;28;20634;-77
2021/01/18 07:04:46;;;;;;;6.50;2.63;;;;;9.50;101970.00;;;;4998725;28;20201;-76
2021/01/18 07:07:24;;;;;;;8.18;2.72;;;;;9.40;101976.00;;;;5008208;28;20743;-77
2021/01/18 07:09:58;;;;;;;6.57;2.63;;;;;9.50;101981.00;;;;5009332;28;20220;-77
2021/01/18 07:12:26;;;;;;;8.18;2.78;;;;;9.50;101977.00;;;;5003606;28;20205;-76
2021/01/18 07:14:58;;;;;;;8.52;2.88;;;;;9.50;101980.00;;;;5008165;28;20572;-77
2021/01/18 07:17:38;;;;;;;8.65;2.90;;;;;9.50;101978.00;;;;5007459;28;20204;-77
2021/01/18 07:20:12;;;;;;;9.45;2.75;;;;;9.60;101984.00;;;;5008156;28;20200;-77
2021/01/18 07:22:53;;;;;;;10.05;3.17;;;;;9.60;101980.00;;;;5009126;28;20277;-77
2021/01/18 07:25:23;;;;;;;5.85;2.92;;;;;9.60;101979.00;;;;5003020;28;20208;-77
2021/01/18 07:27:53;;;;;;;7.57;3.72;;;;;9.60;101983.00;;;;5003363;28;21012;-80
2021/01/18 07:30:20;;;;;;;12.43;3.55;;;;;9.70;101978.00;;;;4999689;28;20224;-80
2021/01/18 07:32:47;;;;;;;7.43;3.25;;;;;9.70;101979.00;;;;5010204;28;20201;-78
2021/01/18 07:35:15;;;;;;;7.43;2.83;;;;;9.70;101984.00;;;;5003941;28;20196;-79
2021/01/18 07:37:41;;;;;;;7.72;3.05;;;;;9.70;101978.00;;;;5009831;28;20243;-80
2021/01/18 07:40:13;;;;;;;9.68;2.95;;;;;9.70;101975.00;;;;4999206;28;20205;-80
2021/01/18 07:42:42;;;;;;;5.88;2.60;;;;;9.70;101982.00;;;;5006620;28;20201;-81
2021/01/18 07:45:13;;;;;;;9.90;2.70;;;;;9.70;101986.00;;;;5009663;28;20205;-80
2021/01/18 07:48:07;;;;;;;6.18;2.65;;;;;9.70;101987.00;;;;5010223;28;20212;-79
2021/01/18 07:50:36;;;;;;;7.95;2.70;;;;;9.80;101992.00;;;;5009732;28;20229;-79
2021/01/18 07:53:05;;;;;;;5.43;2.72;;;;;9.80;102000.00;;;;5009283;28;20675;-80
2021/01/18 07:55:32;;;;;;;4.60;2.40;;;;;9.80;101998.00;;;;5009674;28;20201;-80
2021/01/18 07:58:19;;;;;;;4.38;2.40;;;;;9.70;102011.00;;;;5008590;28;20216;-80
2021/01/18 08:00:47;;;;;;;9.43;2.78;;;;;9.80;102011.00;;;;5007375;28;20232;-79
2021/01/18 08:03:29;;;;;;;6.28;2.65;;;;;9.70;102010.00;;;;5009365;28;20205;-80
2021/01/18 08:06:04;;;;;;;7.30;3.08;;;;;9.80;102011.00;;;;5009565;28;20205;-79
2021/01/18 08:08:33;;;;;;;5.50;2.55;;;;;9.90;102014.00;;;;5009909;28;20563;-78
2021/01/18 08:11:02;;;;;;;5.57;2.63;;;;;9.90;102005.00;;;;5009414;28;20599;-78
2021/01/18 08:13:48;;;;;;;7.50;2.60;;;;;9.80;102019.00;;;;5009070;28;20207;-79
2021/01/18 08:16:20;;;;;;;7.55;3.03;;;;;9.90;102018.00;;;;5008057;28;20197;-77
2021/01/18 08:18:55;;;;;;;6.90;2.88;;;;;9.90;102018.00;;;;5006089;28;20201;-79
2021/01/18 08:21:59;;;;;;;5.68;2.78;;;;;9.90;102014.00;;;;5001364;28;20200;-78
2021/01/18 08:24:49;;;;;;;5.65;2.15;;;;;9.90;102017.00;;;;5001538;28;20280;-78
2021/01/18 08:27:16;;;;;;;7.53;2.25;;;;;10.00;102019.00;;;;4989149;28;20229;-77
2021/01/18 08:29:54;;;;;;;8.90;2.72;;;;;10.00;102012.00;;;;5004419;28;20667;-78
2021/01/18 08:32:38;;;;;;;4.15;2.40;;;;;10.00;102011.00;;;;4997161;28;20347;-78
2021/01/18 08:35:08;;;;;;;5.13;2.30;;;;;10.10;102009.00;;;;5009526;28;20196;-78
2021/01/18 08:37:37;;;;;;;4.85;2.40;;;;;10.10;102007.00;;;;5011103;28;20248;-79
2021/01/18 08:40:07;;;;;;;7.00;2.53;;;;;10.10;102002.00;;;;5007685;28;20673;-81
2021/01/18 08:42:37;;;;;;;3.97;2.42;;;;;10.10;101999.00;;;;5007425;28;20380;-79
2021/01/18 08:45:07;;;;;;;4.47;2.55;;;;;10.20;102001.00;;;;5006988;28;20200;-78
2021/01/18 08:47:39;;;;;;;6.78;2.65;;;;;10.20;101996.00;;;;5001387;28;20221;-78
2021/01/18 08:50:26;;;;;;;4.60;2.25;;;;;10.20;102006.00;;;;5006975;28;20208;-79
2021/01/18 08:52:54;;;;;;;5.90;2.35;;;;;10.30;102000.00;;;;5007829;28;20729;-79
2021/01/18 08:55:52;;;;;;;8.10;2.75;;;;;10.20;101996.00;;;;5017615;28;20212;-79
2021/01/18 08:58:35;;;;;;;5.57;2.35;;;;;10.30;102003.00;;;;5017277;28;20243;-80
2021/01/18 09:01:04;;;;;;;6.25;2.10;;;;;10.40;101995.00;;;;5004631;28;20216;-79
2021/01/18 09:03:30;;;;;;;6.68;2.45;;;;;10.40;101992.00;;;;5003483;28;20197;-80
2021/01/18 09:05:59;;;;;;;7.97;3.00;;;;;10.40;101993.00;;;;5003243;28;20197;-81
2021/01/18 09:08:27;;;;;;;5.40;2.78;;;;;10.40;101988.00;;;;5001391;28;20205;-79
2021/01/18 09:10:56;;;;;;;4.53;2.67;;;;;10.40;101988.00;;;;5004664;28;20224;-80
2021/01/18 09:13:24;;;;;;;6.57;2.67;;;;;10.50;101987.00;;;;4999620;28;20205;-79
2021/01/18 09:15:52;;;;;;;10.02;2.95;;;;;10.50;101976.00;;;;4997146;28;20640;-80
2021/01/18 09:18:22;;;;;;;5.32;2.33;;;;;10.50;101977.00;;;;5007012;28;20189;-79
2021/01/18 09:20:49;;;;;;;5.88;2.50;;;;;10.60;101978.00;;;;5007026;28;20200;-78
2021/01/18 09:23:17;;;;;;;6.28;2.33;;;;;10.60;101980.00;;;;5003787;28;20679;-78
2021/01/18 09:25:45;;;;;;;7.32;2.50;;;;;10.60;101984.00;;;;5001387;28;20198;-77
2021/01/18 09:28:14;;;;;;;7.30;2.88;;;;;10.70;101982.00;;;;5002405;28;20632;-78
2021/01/18 09:30:42;;;;;;;6.80;2.60;;;;;10.70;101976.00;;;;5006383;28;20217;-78
2021/01/18 09:33:11;;;;;;;8.77;2.22;;;;;10.70;101971.00;;;;4996602;28;20194;-77
2021/01/18 09:35:41;;;;;;;6.00;2.10;;;;;10.70;101968.00;;;;4995812;28;20206;-76
2021/01/18 09:38:10;;;;;;;5.68;2.67;;;;;10.80;101969.00;;;;5000521;28;20200;-79
2021/01/18 09:40:39;;;;;;;4.40;1.90;;;;;10.80;101964.00;;;;5001641;28;20216;-81
2021/01/18 09:43:06;;;;;;;5.75;2.00;;;;;10.80;101970.00;;;;5008262;28;20201;-81
2021/01/18 09:45:33;;;;;;;4.78;2.53;;;;;10.90;101962.00;;;;5001898;28;20205;-80
2021/01/18 09:48:02;;;;;;;4.13;2.20;;;;;10.90;101959.00;;;;5001129;28;20200;-80
2021/01/18 09:50:29;;;;;;;7.70;2.47;;;;;11.00;101953.00;;;;5007315;28;20196;-78
2021/01/18 09:52:58;;;;;;;4.40;2.00;;;;;11.00;101955.00;;;;5006701;28;20941;-79
2021/01/18 09:55:27;;;;;;;7.70;2.42;;;;;11.00;101949.00;;;;5006516;28;20565;-79
2021/01/18 09:58:00;;;;;;;5.43;2.40;;;;;11.10;101945.00;;;;5007277;28;20277;-78
2021/01/18 10:00:30;;;;;;;4.30;1.73;;;;;11.10;101946.00;;;;5014120;28;20228;-78
2021/01/18 10:02:59;;;;;;;7.38;2.13;;;;;11.20;101945.00;;;;5008933;28;20190;-77
2021/01/18 10:05:37;;;;;;;5.68;1.85;;;;;11.30;101944.00;;;;5008156;28;20687;-78
2021/01/18 10:08:10;;;;;;;6.63;2.10;;;;;11.30;101944.00;;;;5000591;28;20613;-78
2021/01/18 10:10:45;;;;;;;11.60;2.40;;;;;11.30;101944.00;;;;4997479;28;20243;-78
2021/01/18 10:13:17;;;;;;;10.85;3.03;;;;;11.40;101949.00;;;;5003744;28;20551;-78
2021/01/18 10:15:45;;;;;;;3.53;2.00;;;;;11.50;101941.00;;;;5013397;28;20617;-77
2021/01/18 10:18:27;;;;;;;6.63;2.72;;;;;11.40;101950.00;;;;5007870;28;20583;-77
2021/01/18 10:20:54;;;;;;;5.72;2.67;;;;;11.50;101938.00;;;;5009205;28;20698;-78
2021/01/18 10:23:21;;;;;;;6.72;2.55;;;;;11.60;101954.00;;;;5008833;28;20201;-79
2021/01/18 10:25:48;;;;;;;5.00;2.60;;;;;11.60;101946.00;;;;5007990;28;20216;-77
2021/01/18 10:28:18;;;;;;;4.95;2.17;;;;;11.60;101948.00;;;;5008644;28;20204;-78
2021/01/18 10:30:46;;;;;;;5.30;2.47;;;;;11.70;101941.00;;;;5010084;28;20228;-78
2021/01/18 10:33:17;;;;;;;3.05;2.10;;;;;11.70;101938.00;;;;5007504;28;20444;-76
2021/01/18 10:35:44;;;;;;;5.93;2.58;;;;;11.70;101940.00;;;;5008476;28;20300;-76
2021/01/18 10:38:23;;;;;;;6.10;1.98;;;;;11.60;101938.00;;;;5008594;28;20224;-79
2021/01/18 10:41:03;;;;;;;7.00;2.45;;;;;11.70;101931.00;;;;5011490;28;20208;-78
2021/01/18 10:43:31;;;;;;;4.80;1.90;;;;;11.80;101940.00;;;;5006428;28;20255;-78
2021/01/18 10:45:58;;;;;;;5.47;2.15;;;;;11.80;101937.00;;;;5010619;28;20234;-78
2021/01/18 10:48:30;;;;;;;5.03;1.90;;;;;11.80;101937.00;;;;5007551;28;20197;-77
2021/01/18 10:50:58;;;;;;;10.93;2.88;;;;;11.80;101938.00;;;;5011240;28;20698;-78
2021/01/18 10:53:30;;;;;;;7.07;2.00;;;;;11.80;101936.00;;;;5009556;28;20205;-79
2021/01/18 10:56:11;;;;;;;4.78;2.30;;;;;11.80;101945.00;;;;5009310;28;20192;-79
2021/01/18 10:58:39;;;;;;;6.70;2.13;;;;;11.90;101930.00;;;;5009104;28;20212;-79
2021/01/18 11:01:10;;;;;;;4.00;2.22;;;;;11.90;101930.00;;;;5005204;28;20201;-78
2021/01/18 11:03:38;;;;;;;7.25;2.58;;;;;11.90;101936.00;;;;5015480;28;20216;-79
2021/01/18 11:06:11;;;;;;;7.30;2.30;;;;;11.90;101932.00;;;;5001932;28;20197;-79
2021/01/18 11:08:39;;;;;;;6.20;2.38;;;;;12.00;101926.00;;;;5000911;28;20193;-79
2021/01/18 11:11:23;;;;;;;7.35;2.80;;;;;11.90;101917.00;;;;5010684;28;20217;-79
2021/01/18 11:13:59;;;;;;;2.95;1.85;;;;;12.00;101931.00;;;;5006021;28;20213;-78
2021/01/18 11:16:25;;;;;;;9.95;3.30;;;;;12.00;101924.00;;;;5008513;28;20200;-79
2021/01/18 11:18:58;;;;;;;7.43;2.35;;;;;12.00;101914.00;;;;4995827;28;20201;-77
2021/01/18 11:21:28;;;;;;;3.45;2.45;;;;;12.00;101917.00;;;;5004871;28;20197;-79
2021/01/18 11:23:56;;;;;;;5.20;2.72;;;;;12.00;101912.00;;;;5005451;28;20324;-78
2021/01/18 11:26:24;;;;;;;5.22;2.92;;;;;12.00;101915.00;;;;5009546;28;20189;-78
2021/01/18 11:28:51;;;;;;;3.35;1.90;;;;;12.00;101910.00;;;;5001495;28;20765;-78
2021/01/18 11:31:18;;;;;;;5.38;2.42;;;;;12.00;101913.00;;;;5003327;28;20221;-78
2021/01/18 11:33:45;;;;;;;5.25;2.42;;;;;11.90;101920.00;;;;4993613;28;20197;-77
2021/01/18 11:36:12;;;;;;;5.22;2.33;;;;;11.90;101912.00;;;;5009150;28;20204;-78
2021/01/18 11:38:39;;;;;;;3.35;1.60;;;;;11.90;101915.00;;;;5010444;28;20193;-79
2021/01/18 11:41:07;;;;;;;8.57;2.38;;;;;11.90;101916.00;;;;4991202;28;20632;-79
2021/01/18 11:43:34;;;;;;;4.50;1.90;;;;;11.90;101919.00;;;;5002581;28;20629;-78
2021/01/18 11:46:01;;;;;;;6.05;2.25;;;;;12.00;101912.00;;;;5004848;28;20205;-79
2021/01/18 11:48:28;;;;;;;5.45;2.40;;;;;11.90;101912.00;;;;5009357;28;20200;-79
2021/01/18 11:50:56;;;;;;;11.13;3.08;;;;;11.90;101910.00;;;;5005970;28;20690;-78
2021/01/18 11:53:22;;;;;;;4.95;1.80;;;;;12.00;101902.00;;;;5006440;28;20209;-79
2021/01/18 11:55:50;;;;;;;4.85;2.72;;;;;12.00;101904.00;;;;5007072;28;20247;-79
2021/01/18 11:58:17;;;;;;;6.78;2.20;;;;;12.00;101900.00;;;;5006914;28;20189;-79
2021/01/18 12:00:44;;;;;;;7.50;1.67;;;;;12.00;101896.00;;;;5005680;28;20606;-79
2021/01/18 12:03:11;;;;;;;4.80;1.65;;;;;12.00;101893.00;;;;5003819;28;20671;-78
2021/01/18 12:05:37;;;;;;;4.45;2.28;;;;;12.00;101891.00;;;;5009454;28;20201;-78
2021/01/18 12:08:06;;;;;;;6.35;1.98;;;;;12.00;101895.00;;;;5007045;28;20204;-79
2021/01/18 12:10:35;;;;;;;4.88;1.73;;;;;12.10;101887.00;;;;5008608;28;20221;-78
2021/01/18 12:13:01;;;;;;;4.13;1.70;;;;;12.10;101881.00;;;;5005200;28;20670;-78
2021/01/18 12:15:29;;;;;;;5.95;2.28;;;;;12.20;101875.00;;;;5008463;28;20201;-79
2021/01/18 12:17:56;;;;;;;5.53;1.70;;;;;12.20;101881.00;;;;4999867;28;20197;-79
2021/01/18 12:20:23;;;;;;;7.13;2.10;;;;;12.30;101878.00;;;;5006790;28;20200;-79
2021/01/18 12:22:53;;;;;;;5.40;2.47;;;;;12.30;101874.00;;;;5006420;28;20193;-79
2021/01/18 12:25:20;;;;;;;4.90;2.10;;;;;12.40;101870.00;;;;5001452;28;20213;-80
2021/01/18 12:27:49;;;;;;;7.15;2.35;;;;;12.40;101874.00;;;;4990602;28;20208;-79
2021/01/18 12:30:17;;;;;;;5.10;2.00;;;;;12.50;101859.00;;;;5007661;28;20251;-80
2021/01/18 12:32:45;;;;;;;9.80;2.55;;;;;12.60;101856.00;;;;5008040;28;20224;-79